Time;durP1;ratioP1;P1;durP2;ratioP2;P2;SDS_P1;SDS_P2;PMS_P1;PMS_P2;Temp;Humidity;BMP_temperature;BMP_pressure;BME280_temperature;BME280_humidity;BME280_pressure;Samples;Min_cycle;Max_cycle;Signal;HPM_P1;HPM_P2
2022/01/11 00:01:15;;;;;;;36.83;14.20;;;;;;;-0.12;100.00;97611.59;4998732;28;20450;-64
2022/01/11 00:03:42;;;;;;;35.95;17.00;;;;;;;-0.07;100.00;97611.56;5001317;28;20114;-63
2022/01/11 00:06:27;;;;;;;36.25;14.98;;;;;;;-0.11;100.00;97608.63;4982809;28;20046;-63
2022/01/11 00:08:59;;;;;;;35.88;14.10;;;;;;;-0.12;100.00;97614.28;4983378;28;20038;-64
2022/01/11 00:11:24;;;;;;;34.38;14.70;;;;;;;-0.14;100.00;97608.38;4979617;28;20589;-62
2022/01/11 00:13:50;;;;;;;35.30;15.35;;;;;;;-0.13;100.00;97601.88;4994795;28;20113;-65
2022/01/11 00:16:15;;;;;;;34.45;14.85;;;;;;;-0.14;100.00;97614.53;4993302;28;20039;-65
2022/01/11 00:18:41;;;;;;;33.92;15.07;;;;;;;-0.15;100.00;97610.22;4983676;28;20065;-64
2022/01/11 00:21:06;;;;;;;33.95;15.25;;;;;;;-0.14;100.00;97624.53;4976930;28;20081;-65
2022/01/11 00:25:58;;;;;;;35.55;13.88;;;;;;;-0.06;100.00;97619.34;4995459;28;20042;-65
2022/01/11 00:28:25;;;;;;;36.58;15.57;;;;;;;-0.04;100.00;97619.91;5017943;28;20052;-65
2022/01/11 00:30:51;;;;;;;29.40;13.18;;;;;;;-0.06;100.00;97627.44;5023006;28;20518;-65
2022/01/11 00:33:27;;;;;;;31.98;14.77;;;;;;;-0.07;100.00;97628.53;5015520;28;20145;-64
2022/01/11 00:36:00;;;;;;;31.02;13.82;;;;;;;-0.08;100.00;97626.91;5021937;28;20034;-64
2022/01/11 00:38:34;;;;;;;32.90;14.60;;;;;;;-0.13;100.00;97621.53;5032569;28;20443;-64
2022/01/11 00:41:05;;;;;;;31.73;14.00;;;;;;;-0.13;100.00;97623.41;5023096;28;20038;-64
2022/01/11 00:43:31;;;;;;;32.75;14.57;;;;;;;-0.17;100.00;97620.47;5022311;28;20045;-64
2022/01/11 00:45:57;;;;;;;33.58;14.98;;;;;;;-0.20;100.00;97629.91;5021354;28;20444;-64
2022/01/11 00:48:23;;;;;;;38.97;15.55;;;;;;;-0.22;100.00;97626.69;5017347;28;20080;-66
2022/01/11 00:50:49;;;;;;;36.88;14.07;;;;;;;-0.24;100.00;97626.13;5022096;28;20054;-64
2022/01/11 00:53:18;;;;;;;33.35;14.63;;;;;;;-0.26;100.00;97630.19;5017662;28;20041;-64
2022/01/11 00:55:44;;;;;;;38.72;15.57;;;;;;;-0.26;100.00;97625.59;5022200;28;20120;-62
2022/01/11 00:58:09;;;;;;;34.53;14.90;;;;;;;-0.28;100.00;97632.34;5016472;28;20052;-64
2022/01/11 01:00:37;;;;;;;36.10;15.10;;;;;;;-0.32;100.00;97629.41;5037030;28;20049;-64
2022/01/11 01:03:03;;;;;;;32.10;14.55;;;;;;;-0.26;100.00;97627.50;5010133;28;20089;-64
2022/01/11 01:05:28;;;;;;;34.67;14.65;;;;;;;-0.30;100.00;97626.44;4990078;28;20042;-64
2022/01/11 01:07:54;;;;;;;34.78;14.10;;;;;;;-0.24;100.00;97617.25;5002227;28;20565;-63
2022/01/11 01:10:26;;;;;;;41.75;15.52;;;;;;;-0.27;100.00;97624.00;5011762;28;20080;-63
2022/01/11 01:12:53;;;;;;;33.08;14.70;;;;;;;-0.31;100.00;97622.94;5000564;28;20046;-64
2022/01/11 01:15:20;;;;;;;34.78;15.35;;;;;;;-0.23;100.00;97621.56;4994192;28;20053;-64
2022/01/11 01:17:46;;;;;;;30.20;14.38;;;;;;;-0.22;100.00;97631.25;5011866;28;20073;-64
2022/01/11 01:20:11;;;;;;;31.77;14.15;;;;;;;-0.20;100.00;97624.53;5009111;28;20490;-63
2022/01/11 01:22:37;;;;;;;29.23;13.30;;;;;;;-0.16;100.00;97626.66;5003609;28;20076;-62
2022/01/11 01:25:03;;;;;;;37.38;15.30;;;;;;;-0.14;100.00;97632.59;5000888;28;20049;-65
2022/01/11 01:27:29;;;;;;;35.05;15.05;;;;;;;-0.13;100.00;97626.91;5015133;28;20042;-65
2022/01/11 01:29:54;;;;;;;36.90;15.98;;;;;;;-0.05;100.00;97636.34;5002121;28;20445;-65
2022/01/11 01:32:20;;;;;;;34.00;15.43;;;;;;;-0.02;100.00;97641.97;4982524;28;20510;-65
2022/01/11 01:34:46;;;;;;;37.15;15.55;;;;;;;0.00;100.00;97639.00;4983622;28;20585;-64
2022/01/11 01:37:12;;;;;;;38.65;15.60;;;;;;;-0.03;100.00;97636.88;4995722;28;20038;-64
2022/01/11 01:39:37;;;;;;;43.10;16.75;;;;;;;0.01;100.00;97637.13;5014587;28;20132;-63
2022/01/11 01:42:04;;;;;;;47.22;16.90;;;;;;;0.01;100.00;97643.31;5013932;28;20482;-63
2022/01/11 01:44:32;;;;;;;37.25;14.68;;;;;;;-0.04;100.00;97641.44;5001427;28;20422;-65
2022/01/11 01:46:58;;;;;;;39.78;15.30;;;;;;;0.01;100.00;97650.59;4992851;28;20112;-65
2022/01/11 01:49:23;;;;;;;36.78;16.17;;;;;;;0.03;100.00;97646.53;4992190;28;20043;-65
2022/01/11 01:51:50;;;;;;;42.17;16.80;;;;;;;0.03;100.00;97643.03;4992526;28;20142;-65
2022/01/11 01:54:16;;;;;;;36.35;16.73;;;;;;;-0.03;100.00;97642.25;4993291;28;20046;-65
2022/01/11 01:56:43;;;;;;;35.00;15.48;;;;;;;0.03;100.00;97645.72;5000504;28;20046;-64
2022/01/11 01:59:08;;;;;;;43.70;17.70;;;;;;;0.04;100.00;97647.31;4989858;28;20099;-64
2022/01/11 02:01:38;;;;;;;43.50;16.95;;;;;;;0.05;100.00;97644.34;4995785;28;20053;-65
2022/01/11 02:04:04;;;;;;;38.08;16.20;;;;;;;0.06;100.00;97643.28;4992865;28;20485;-64
2022/01/11 02:06:30;;;;;;;37.03;17.70;;;;;;;0.04;100.00;97644.63;5014748;28;20124;-65
2022/01/11 02:08:55;;;;;;;39.63;18.80;;;;;;;0.04;100.00;97637.38;4991547;28;20541;-65
2022/01/11 02:11:24;;;;;;;38.67;17.92;;;;;;;-0.04;100.00;97643.31;4988281;28;22300;-64
2022/01/11 02:13:50;;;;;;;40.90;17.15;;;;;;;-0.08;100.00;97648.44;5001296;28;20057;-64
2022/01/11 02:16:19;;;;;;;42.25;18.45;;;;;;;-0.10;100.00;97647.13;4989585;28;20049;-64
2022/01/11 02:18:46;;;;;;;54.15;19.17;;;;;;;-0.06;100.00;97643.59;4982989;28;20038;-64
2022/01/11 02:21:12;;;;;;;35.78;17.13;;;;;;;-0.07;100.00;97654.66;4985896;28;20555;-63
2022/01/11 02:23:39;;;;;;;42.67;17.73;;;;;;;-0.04;100.00;97644.16;5000019;28;20042;-64
2022/01/11 02:26:04;;;;;;;45.00;18.73;;;;;;;-0.02;100.00;97649.22;4989154;28;20106;-64
2022/01/11 02:28:31;;;;;;;45.03;19.40;;;;;;;0.05;100.00;97649.75;4997953;28;20041;-64
2022/01/11 02:30:58;;;;;;;44.90;18.52;;;;;;;-0.01;100.00;97643.56;4999363;28;20073;-64
2022/01/11 02:33:37;;;;;;;45.55;20.17;;;;;;;0.02;100.00;97644.94;4988396;28;20041;-65
2022/01/11 02:36:07;;;;;;;46.42;19.38;;;;;;;-0.04;100.00;97657.59;4997363;28;20038;-63
2022/01/11 02:38:33;;;;;;;52.40;19.00;;;;;;;-0.05;100.00;97657.88;4997315;28;20479;-64
2022/01/11 02:40:59;;;;;;;41.40;19.00;;;;;;;-0.04;100.00;97660.31;5001396;28;20103;-65
2022/01/11 02:43:25;;;;;;;45.28;18.02;;;;;;;-0.11;100.00;97657.09;5010768;28;20064;-64
2022/01/11 02:45:51;;;;;;;49.33;20.23;;;;;;;-0.11;100.00;97665.16;5005707;28;20541;-65
2022/01/11 02:48:17;;;;;;;47.33;19.50;;;;;;;-0.10;100.00;97663.28;4988726;28;20042;-65
2022/01/11 02:50:47;;;;;;;49.45;19.25;;;;;;;-0.15;100.00;97672.16;5001286;28;20049;-65
2022/01/11 02:53:13;;;;;;;45.53;20.20;;;;;;;-0.12;100.00;97668.13;4989423;28;20090;-65
2022/01/11 02:55:40;;;;;;;43.10;19.23;;;;;;;-0.18;100.00;97666.50;4999119;28;20049;-66
2022/01/11 02:58:06;;;;;;;43.03;18.63;;;;;;;-0.14;100.00;97663.00;4997710;28;20541;-65
2022/01/11 03:00:32;;;;;;;47.60;17.85;;;;;;;-0.10;100.00;97663.28;5002585;28;20391;-64
2022/01/11 03:03:20;;;;;;;43.45;18.77;;;;;;;0.06;100.00;97655.97;5011331;28;20041;-63
2022/01/11 03:05:48;;;;;;;41.10;17.67;;;;;;;-0.02;100.00;97651.94;5003234;28;20042;-66
2022/01/11 03:08:15;;;;;;;44.88;19.65;;;;;;;0.01;100.00;97658.66;4992106;28;20515;-64
2022/01/11 03:10:41;;;;;;;42.65;17.67;;;;;;;-0.03;100.00;97669.97;5000215;28;20050;-65
2022/01/11 03:13:08;;;;;;;41.25;18.20;;;;;;;0.04;100.00;97671.56;4991141;28;20045;-63
2022/01/11 03:15:34;;;;;;;51.90;21.30;;;;;;;-0.01;100.00;97667.00;5002927;28;20766;-65
2022/01/11 03:18:00;;;;;;;41.28;18.85;;;;;;;-0.03;100.00;97672.66;4995024;28;20069;-65
2022/01/11 03:20:26;;;;;;;48.78;20.02;;;;;;;0.03;100.00;97669.97;4998017;28;20041;-68
2022/01/11 03:22:51;;;;;;;46.17;18.35;;;;;;;0.05;100.00;97659.72;4996702;28;20049;-65
2022/01/11 03:25:17;;;;;;;44.22;17.85;;;;;;;0.07;100.00;97663.75;4998442;28;20050;-65
2022/01/11 03:27:44;;;;;;;46.75;18.88;;;;;;;0.08;100.00;97664.56;4996462;28;20065;-66
2022/01/11 03:30:10;;;;;;;47.30;18.38;;;;;;;0.03;100.00;97665.38;4997404;28;20048;-65
2022/01/11 03:32:36;;;;;;;42.53;18.92;;;;;;;0.06;100.00;97666.75;4994524;28;20046;-65
2022/01/11 03:35:05;;;;;;;50.92;17.95;;;;;;;0.04;100.00;97663.47;5004483;28;20057;-64
2022/01/11 03:37:31;;;;;;;52.10;18.95;;;;;;;0.04;100.00;97661.63;5001073;28;20042;-65
2022/01/11 03:39:57;;;;;;;40.78;18.70;;;;;;;0.06;100.00;97672.13;5003035;28;20088;-64
2022/01/11 03:42:22;;;;;;;40.67;18.80;;;;;;;0.14;100.00;97669.66;4995081;28;20081;-65
2022/01/11 03:44:49;;;;;;;39.88;18.00;;;;;;;0.11;100.00;97680.16;5013258;28;20046;-65
2022/01/11 03:47:15;;;;;;;42.33;18.83;;;;;;;0.11;100.00;97659.44;4999678;28;20103;-63
2022/01/11 03:49:40;;;;;;;43.58;17.25;;;;;;;0.11;100.00;97661.31;5017301;28;20046;-65
2022/01/11 03:52:06;;;;;;;36.97;17.83;;;;;;;0.12;100.00;97669.13;4991866;28;20041;-62
2022/01/11 03:54:44;;;;;;;41.08;18.98;;;;;;;0.21;100.00;97669.34;5004312;28;20044;-65
2022/01/11 03:57:09;;;;;;;35.55;15.88;;;;;;;0.22;100.00;97670.16;5007381;28;20141;-64
2022/01/11 03:59:35;;;;;;;40.38;17.00;;;;;;;0.22;100.00;97664.75;5007826;28;20081;-65
2022/01/11 04:02:01;;;;;;;35.80;15.23;;;;;;;0.21;100.00;97666.66;5000923;28;20120;-64
2022/01/11 04:04:26;;;;;;;37.67;16.10;;;;;;;0.25;100.00;97664.22;4996050;28;20038;-64
2022/01/11 04:06:52;;;;;;;31.77;14.48;;;;;;;0.26;100.00;97661.25;5002048;28;20071;-64
2022/01/11 04:09:18;;;;;;;33.95;15.45;;;;;;;0.25;100.00;97656.13;5005501;28;20053;-64
2022/01/11 04:11:44;;;;;;;35.63;15.35;;;;;;;0.31;100.00;97663.13;5015095;28;20100;-64
2022/01/11 04:14:09;;;;;;;33.75;15.70;;;;;;;0.32;100.00;97653.94;4995891;28;20092;-64
2022/01/11 04:16:35;;;;;;;34.00;14.40;;;;;;;0.31;100.00;97663.13;4998575;28;20665;-64
2022/01/11 04:19:01;;;;;;;32.13;13.70;;;;;;;0.34;100.00;97668.78;5012102;28;20056;-64
2022/01/11 04:21:26;;;;;;;30.10;14.18;;;;;;;0.35;100.00;97661.50;4989357;28;20038;-63
2022/01/11 04:23:54;;;;;;;34.58;15.27;;;;;;;0.36;100.00;97652.31;4996277;28;20396;-64
2022/01/11 04:26:19;;;;;;;28.60;15.07;;;;;;;0.35;100.00;97659.59;4998282;28;20054;-64
2022/01/11 04:28:44;;;;;;;35.28;15.85;;;;;;;0.41;100.00;97663.06;5002758;28;20494;-65
2022/01/11 04:31:10;;;;;;;35.85;15.27;;;;;;;0.44;100.00;97670.59;4996579;28;20137;-64
2022/01/11 04:33:35;;;;;;;34.20;15.63;;;;;;;0.43;100.00;97673.56;4993987;28;20072;-65
2022/01/11 04:36:02;;;;;;;35.10;16.17;;;;;;;0.43;100.00;97666.28;4999961;28;20402;-64
2022/01/11 04:38:30;;;;;;;34.90;15.65;;;;;;;0.47;100.00;97667.38;4991115;28;20046;-64
2022/01/11 04:40:57;;;;;;;31.45;14.23;;;;;;;0.54;100.00;97667.03;4991711;28;20053;-64
2022/01/11 04:43:22;;;;;;;35.75;14.73;;;;;;;0.44;100.00;97678.69;4992582;28;20129;-64
2022/01/11 04:45:48;;;;;;;34.10;14.18;;;;;;;0.44;100.00;97675.22;5000786;28;20104;-64
2022/01/11 04:48:14;;;;;;;37.97;14.85;;;;;;;0.44;100.00;97680.59;4992085;28;20118;-62
2022/01/11 04:50:40;;;;;;;37.58;16.55;;;;;;;0.45;100.00;97680.31;5000527;28;20046;-64
2022/01/11 04:53:05;;;;;;;32.55;15.45;;;;;;;0.46;100.00;97681.13;5009053;28;20034;-64
2022/01/11 04:55:32;;;;;;;40.38;15.90;;;;;;;0.43;100.00;97678.97;5004833;28;20041;-64
2022/01/11 04:57:58;;;;;;;35.10;15.82;;;;;;;0.40;100.00;97682.22;5003120;28;20049;-63
2022/01/11 05:00:25;;;;;;;42.70;16.58;;;;;;;0.42;100.00;97688.94;4996947;28;20046;-64
2022/01/11 05:02:50;;;;;;;38.33;16.60;;;;;;;0.43;100.00;97693.25;5003051;28;20510;-64
2022/01/11 05:05:16;;;;;;;43.13;17.38;;;;;;;0.45;100.00;97687.59;4995054;28;20057;-64
2022/01/11 05:07:43;;;;;;;34.90;16.80;;;;;;;0.46;100.00;97691.91;4984828;28;20446;-64
2022/01/11 05:10:09;;;;;;;41.88;17.95;;;;;;;0.47;100.00;97675.47;4988579;28;20088;-64
2022/01/11 05:12:38;;;;;;;43.03;17.83;;;;;;;0.46;100.00;97690.00;4994563;28;20148;-64
2022/01/11 05:15:09;;;;;;;33.17;14.80;;;;;;;0.46;100.00;97695.41;4994670;28;20050;-62
2022/01/11 05:17:35;;;;;;;41.83;16.70;;;;;;;0.51;100.00;97694.56;5014167;28;20034;-64
2022/01/11 05:20:01;;;;;;;43.60;17.27;;;;;;;0.49;100.00;97696.75;4994353;28;20069;-64
2022/01/11 05:22:26;;;;;;;38.88;17.02;;;;;;;0.49;100.00;97700.25;4998030;28;20042;-63
2022/01/11 05:24:52;;;;;;;39.13;17.08;;;;;;;0.49;100.00;97700.25;5001574;28;20069;-64
2022/01/11 05:27:17;;;;;;;43.45;17.65;;;;;;;0.48;100.00;97692.44;4988500;28;20125;-65
2022/01/11 05:29:43;;;;;;;35.38;17.13;;;;;;;0.45;100.00;97696.50;5002037;28;20073;-64
2022/01/11 05:32:08;;;;;;;42.75;17.67;;;;;;;0.44;100.00;97697.56;4995512;28;20049;-62
2022/01/11 05:34:34;;;;;;;39.65;17.63;;;;;;;0.43;100.00;97697.84;4998102;28;20654;-65
2022/01/11 05:36:59;;;;;;;41.38;16.80;;;;;;;0.43;100.00;97698.63;4998030;28;20550;-65
2022/01/11 05:39:25;;;;;;;45.83;17.05;;;;;;;0.43;100.00;97698.63;4996325;28;20372;-66
2022/01/11 05:41:50;;;;;;;38.38;16.80;;;;;;;0.35;100.00;97697.31;4991682;28;20073;-65
2022/01/11 05:44:16;;;;;;;37.63;17.08;;;;;;;0.37;100.00;97699.75;4992422;28;20153;-65
2022/01/11 05:46:43;;;;;;;42.38;17.75;;;;;;;0.34;100.00;97692.22;4996507;28;20132;-64
2022/01/11 05:49:08;;;;;;;44.35;17.48;;;;;;;0.27;100.00;97711.38;4993505;28;20447;-65
2022/01/11 05:51:33;;;;;;;44.90;17.77;;;;;;;0.27;100.00;97710.56;4997828;28;20080;-64
2022/01/11 05:53:59;;;;;;;37.95;16.70;;;;;;;0.25;100.00;97702.75;4990746;28;20053;-64
2022/01/11 05:56:24;;;;;;;38.40;18.05;;;;;;;0.27;100.00;97714.09;4993898;28;20494;-64
2022/01/11 05:58:52;;;;;;;42.65;18.40;;;;;;;0.21;100.00;97720.56;5000454;28;20125;-64
2022/01/11 06:01:18;;;;;;;43.40;19.08;;;;;;;0.18;100.00;97727.31;4995657;28;20041;-65
2022/01/11 06:03:43;;;;;;;43.10;18.13;;;;;;;0.16;100.00;97729.47;5014230;28;20060;-65
2022/01/11 06:06:09;;;;;;;46.58;18.17;;;;;;;0.15;100.00;97732.44;4986367;28;20121;-65
2022/01/11 06:08:34;;;;;;;42.45;18.50;;;;;;;0.14;100.00;97739.69;4991594;28;20045;-63
2022/01/11 06:11:00;;;;;;;40.22;17.23;;;;;;;0.15;100.00;97744.00;5001377;28;20108;-64
2022/01/11 06:13:25;;;;;;;40.03;17.27;;;;;;;0.11;100.00;97734.03;4985099;28;20610;-64
2022/01/11 06:15:51;;;;;;;40.97;17.55;;;;;;;0.01;100.00;97742.16;4998561;28;20099;-65
2022/01/11 06:18:17;;;;;;;40.97;18.10;;;;;;;0.03;100.00;97738.09;4994765;28;20514;-62
2022/01/11 06:20:43;;;;;;;40.90;17.77;;;;;;;0.05;100.00;97743.22;5014576;28;20180;-65
2022/01/11 06:23:09;;;;;;;38.67;18.20;;;;;;;-0.03;100.00;97744.59;4995232;28;20046;-65
2022/01/11 06:25:35;;;;;;;39.22;17.88;;;;;;;0.02;100.00;97747.28;4994197;28;20381;-65
2022/01/11 06:28:01;;;;;;;39.75;16.90;;;;;;;-0.07;100.00;97755.09;5001420;28;20081;-64
2022/01/11 06:30:27;;;;;;;37.20;17.85;;;;;;;-0.10;100.00;97761.03;5009001;28;20053;-64
2022/01/11 06:32:54;;;;;;;40.67;17.15;;;;;;;-0.06;100.00;97762.09;4999693;28;20044;-65
2022/01/11 06:35:20;;;;;;;44.58;18.15;;;;;;;-0.12;100.00;97760.50;4982758;28;20120;-64
2022/01/11 06:37:46;;;;;;;41.63;17.25;;;;;;;-0.16;100.00;97763.97;4999301;28;20141;-63
2022/01/11 06:40:14;;;;;;;43.78;17.02;;;;;;;-0.13;100.00;97768.84;4992028;28;20065;-65
2022/01/11 06:42:39;;;;;;;47.42;18.70;;;;;;;-0.14;100.00;97764.53;5000685;28;20458;-63
2022/01/11 06:45:06;;;;;;;43.72;17.85;;;;;;;-0.21;100.00;97775.59;5007722;28;20046;-61
2022/01/11 06:47:32;;;;;;;47.28;19.50;;;;;;;-0.22;100.00;97774.78;4996126;28;20053;-63
2022/01/11 06:49:57;;;;;;;45.42;19.27;;;;;;;-0.24;100.00;97773.41;5005616;28;20046;-65
2022/01/11 06:52:23;;;;;;;51.00;18.73;;;;;;;-0.23;100.00;97781.22;5000344;28;20324;-63
2022/01/11 06:54:48;;;;;;;41.42;18.83;;;;;;;-0.26;100.00;97776.38;5005538;28;20061;-63
2022/01/11 06:57:13;;;;;;;40.40;19.08;;;;;;;-0.19;100.00;97781.50;4995050;28;20050;-64
2022/01/11 06:59:39;;;;;;;49.20;17.83;;;;;;;-0.27;100.00;97790.09;5001969;28;20128;-64
2022/01/11 07:02:05;;;;;;;43.22;18.45;;;;;;;-0.15;100.00;97796.03;4986370;28;20042;-63
2022/01/11 07:04:31;;;;;;;43.90;19.23;;;;;;;-0.20;100.00;97790.66;5002541;28;20073;-64
2022/01/11 07:06:56;;;;;;;40.03;18.33;;;;;;;-0.07;100.00;97786.63;5004961;28;20108;-65
2022/01/11 07:09:22;;;;;;;43.42;18.48;;;;;;;-0.03;100.00;97801.16;4998509;28;20084;-63
2022/01/11 07:11:47;;;;;;;40.70;17.40;;;;;;;-0.12;100.00;97798.19;4995229;28;20049;-63
2022/01/11 07:14:13;;;;;;;41.47;17.70;;;;;;;-0.19;100.00;97805.72;4981153;28;20103;-61
2022/01/11 07:16:39;;;;;;;39.78;17.13;;;;;;;-0.25;100.00;97809.50;5001069;28;20104;-64
2022/01/11 07:19:04;;;;;;;39.42;17.67;;;;;;;-0.26;100.00;97807.88;4986507;28;20049;-62
2022/01/11 07:21:30;;;;;;;46.15;18.27;;;;;;;-0.24;100.00;97808.41;4995166;28;20136;-65
2022/01/11 07:23:56;;;;;;;41.95;17.30;;;;;;;-0.19;100.00;97808.44;4997963;28;20037;-65
2022/01/11 07:26:21;;;;;;;36.00;16.77;;;;;;;-0.23;100.00;97815.44;4992522;28;20054;-65
2022/01/11 07:28:47;;;;;;;43.38;17.48;;;;;;;-0.21;100.00;97807.88;4985137;28;20137;-64
2022/01/11 07:31:13;;;;;;;37.70;16.73;;;;;;;-0.22;100.00;97817.03;4986857;28;20045;-64
2022/01/11 07:33:39;;;;;;;37.42;16.30;;;;;;;-0.22;100.00;97809.78;4988540;28;20099;-65
2022/01/11 07:36:04;;;;;;;31.55;15.82;;;;;;;-0.21;100.00;97814.06;4980862;28;20504;-62
2022/01/11 07:38:30;;;;;;;35.58;16.83;;;;;;;-0.10;100.00;97819.47;5003737;28;20042;-64
2022/01/11 07:40:55;;;;;;;43.22;18.02;;;;;;;-0.06;100.00;97821.34;5005036;28;20038;-64
2022/01/11 07:43:20;;;;;;;39.00;17.50;;;;;;;-0.06;100.00;97828.63;4998552;28;20117;-65
2022/01/11 07:45:46;;;;;;;39.42;16.95;;;;;;;-0.05;100.00;97822.97;5009300;28;20038;-64
2022/01/11 07:48:12;;;;;;;37.35;16.77;;;;;;;0.05;100.00;97830.22;4995549;28;20077;-64
2022/01/11 07:50:37;;;;;;;34.85;15.75;;;;;;;0.14;100.00;97833.19;4998500;28;20380;-65
2022/01/11 07:53:05;;;;;;;35.78;16.23;;;;;;;0.34;100.00;97829.66;4996437;28;20411;-62
2022/01/11 07:55:31;;;;;;;35.20;16.15;;;;;;;0.53;100.00;97841.47;5000959;28;20050;-65
2022/01/11 07:57:57;;;;;;;34.15;14.90;;;;;;;0.57;100.00;97837.16;5004604;28;20570;-62
2022/01/11 08:00:22;;;;;;;31.05;14.80;;;;;;;0.59;100.00;97838.78;4996311;28;20093;-64
2022/01/11 08:02:48;;;;;;;32.80;15.40;;;;;;;0.70;100.00;97826.88;5012131;28;20046;-64
2022/01/11 08:05:15;;;;;;;29.10;14.75;;;;;;;0.76;100.00;97839.28;4984951;28;20097;-62
2022/01/11 08:07:42;;;;;;;32.47;15.52;;;;;;;0.74;100.00;97831.44;5004939;28;20042;-63
2022/01/11 08:10:09;;;;;;;30.02;14.77;;;;;;;0.83;100.00;97836.25;4995084;28;20046;-63
2022/01/11 08:12:34;;;;;;;30.15;15.02;;;;;;;0.91;100.00;97835.69;5003965;28;20080;-63
2022/01/11 08:15:01;;;;;;;29.92;14.50;;;;;;;1.09;100.00;97842.38;5003657;28;20062;-65
2022/01/11 08:17:28;;;;;;;27.83;14.52;;;;;;;1.07;100.00;97839.94;4991452;28;20050;-65
2022/01/11 08:19:54;;;;;;;26.17;13.73;;;;;;;1.20;100.00;97843.94;4995430;28;20068;-64
2022/01/11 08:22:19;;;;;;;34.60;16.77;;;;;;;1.17;100.00;97839.13;4983567;28;20141;-65
2022/01/11 08:24:44;;;;;;;32.03;17.25;;;;;;;1.22;100.00;97839.06;4984350;28;20088;-65
2022/01/11 08:27:11;;;;;;;29.45;17.15;;;;;;;1.19;100.00;97852.31;4982292;28;20034;-65
2022/01/11 08:29:37;;;;;;;30.25;14.70;;;;;;;1.17;100.00;97849.06;4995507;28;20046;-65
2022/01/11 08:32:03;;;;;;;33.40;15.77;;;;;;;1.48;100.00;97845.13;4994122;28;20046;-64
2022/01/11 08:34:28;;;;;;;30.15;14.27;;;;;;;1.41;100.00;97843.84;4998602;28;20041;-64
2022/01/11 08:36:55;;;;;;;26.85;14.02;;;;;;;1.50;100.00;97848.38;4999474;28;20049;-64
2022/01/11 08:39:21;;;;;;;25.58;14.35;;;;;;;1.55;100.00;97844.84;4994249;28;20142;-64
2022/01/11 08:41:47;;;;;;;29.17;15.52;;;;;;;1.60;100.00;97843.97;4999422;28;20041;-63
2022/01/11 08:44:13;;;;;;;25.73;14.80;;;;;;;1.67;100.00;97845.28;4995536;28;20049;-64
2022/01/11 08:46:43;;;;;;;25.38;14.32;;;;;;;1.77;99.61;97843.63;5000583;28;20044;-64
2022/01/11 08:49:10;;;;;;;29.27;15.00;;;;;;;1.90;98.31;97840.25;4988041;28;20387;-63
2022/01/11 08:51:35;;;;;;;27.85;13.20;;;;;;;2.20;96.60;97843.81;4997450;28;20495;-64
2022/01/11 08:54:01;;;;;;;23.58;12.95;;;;;;;2.41;96.12;97845.25;4984062;28;20038;-64
2022/01/11 08:56:27;;;;;;;29.13;15.98;;;;;;;2.31;95.17;97852.66;4990423;28;20463;-64
2022/01/11 08:58:52;;;;;;;24.27;12.95;;;;;;;2.48;94.67;97850.28;4994825;28;20038;-65
2022/01/11 09:01:18;;;;;;;24.23;13.63;;;;;;;2.27;95.14;97847.00;4995400;28;20057;-62
2022/01/11 09:03:43;;;;;;;27.20;11.48;;;;;;;2.41;93.74;97844.41;4994981;28;20390;-63
2022/01/11 09:06:09;;;;;;;25.98;13.63;;;;;;;2.84;91.79;97849.91;4993045;28;20497;-65
2022/01/11 09:08:36;;;;;;;24.02;12.27;;;;;;;2.14;94.19;97851.13;5011297;28;20042;-65
2022/01/11 09:11:04;;;;;;;21.92;12.77;;;;;;;2.25;93.22;97846.44;4992866;28;20074;-64
2022/01/11 09:13:30;;;;;;;25.30;12.80;;;;;;;2.24;93.27;97844.84;4997456;28;20077;-64
2022/01/11 09:15:56;;;;;;;27.95;13.77;;;;;;;2.55;90.88;97850.75;5006785;28;20038;-65
2022/01/11 09:18:21;;;;;;;23.58;11.25;;;;;;;2.67;91.00;97848.47;4992706;28;20463;-63
2022/01/11 09:20:47;;;;;;;19.83;10.93;;;;;;;3.19;87.13;97851.41;5002255;28;20525;-65
2022/01/11 09:23:12;;;;;;;23.88;11.88;;;;;;;2.72;89.17;97850.34;4996459;28;20526;-65
2022/01/11 09:25:38;;;;;;;21.92;11.10;;;;;;;2.93;86.98;97859.00;5000481;28;20046;-64
2022/01/11 09:28:04;;;;;;;18.02;10.98;;;;;;;2.87;86.99;97855.56;4988143;28;20138;-64
2022/01/11 09:30:30;;;;;;;23.35;11.20;;;;;;;2.75;87.17;97863.25;4991742;28;20169;-63
2022/01/11 09:32:56;;;;;;;19.00;10.43;;;;;;;2.59;88.29;97865.34;5002031;28;20048;-64
2022/01/11 09:35:21;;;;;;;21.00;10.98;;;;;;;2.61;88.48;97860.47;4996911;28;20907;-64
2022/01/11 09:37:47;;;;;;;20.23;12.15;;;;;;;2.68;87.53;97869.03;5002692;28;20713;-65
2022/01/11 09:40:13;;;;;;;22.65;11.82;;;;;;;2.86;88.19;97863.97;4996510;28;20100;-63
2022/01/11 09:42:39;;;;;;;21.90;11.43;;;;;;;2.68;89.18;97865.50;4994062;28;20049;-65
2022/01/11 09:45:07;;;;;;;22.88;10.98;;;;;;;2.63;87.56;97865.59;4988430;28;20042;-62
2022/01/11 09:47:33;;;;;;;18.88;10.63;;;;;;;2.77;87.57;97876.50;5000192;28;20072;-64
2022/01/11 09:49:59;;;;;;;18.55;10.70;;;;;;;2.71;86.35;97861.44;5003275;28;20053;-65
2022/01/11 09:52:28;;;;;;;17.58;9.57;;;;;;;2.57;86.74;97864.81;4990791;28;20038;-64
2022/01/11 09:54:54;;;;;;;20.88;10.07;;;;;;;2.65;87.05;97869.59;5018467;28;20069;-63
2022/01/11 09:57:20;;;;;;;18.60;9.25;;;;;;;2.69;86.69;97869.84;4992274;28;20129;-64
2022/01/11 09:59:46;;;;;;;20.27;9.90;;;;;;;2.70;85.91;97867.94;4995037;28;20105;-64
2022/01/11 10:02:14;;;;;;;18.85;9.45;;;;;;;2.63;87.04;97871.00;4996044;28;20057;-64
2022/01/11 10:04:39;;;;;;;17.63;8.77;;;;;;;2.98;85.58;97867.06;5001083;28;20057;-64
2022/01/11 10:07:08;;;;;;;17.58;9.25;;;;;;;3.19;83.62;97875.78;4996585;28;20046;-63
2022/01/11 10:09:48;;;;;;;18.88;9.38;;;;;;;2.84;86.19;97872.38;5007217;28;20057;-63
2022/01/11 10:12:15;;;;;;;15.98;9.50;;;;;;;2.64;85.26;97864.47;4992488;28;20069;-63
2022/01/11 10:14:50;;;;;;;17.77;9.40;;;;;;;2.37;88.71;97883.94;4994709;28;20038;-62
2022/01/11 10:17:37;;;;;;;18.35;10.00;;;;;;;2.27;88.16;97876.72;4996450;28;20034;-63
2022/01/11 10:20:15;;;;;;;17.70;10.07;;;;;;;2.26;88.55;97869.69;5015787;28;20069;-65
2022/01/11 10:22:46;;;;;;;17.55;9.68;;;;;;;2.42;89.20;97879.28;4994033;28;20072;-64
2022/01/11 10:25:12;;;;;;;23.27;12.13;;;;;;;2.55;88.18;97869.69;4997135;28;20550;-63
2022/01/11 10:27:37;;;;;;;18.42;10.35;;;;;;;2.81;86.85;97874.84;4998834;28;20132;-63
2022/01/11 10:30:07;;;;;;;23.90;12.55;;;;;;;2.91;86.34;97880.16;4997466;28;20408;-62
2022/01/11 10:32:37;;;;;;;20.95;10.25;;;;;;;2.89;87.08;97885.03;4997028;28;20038;-63
2022/01/11 10:35:10;;;;;;;16.92;9.57;;;;;;;2.61;85.00;97868.56;4998151;28;20049;-63
2022/01/11 10:37:44;;;;;;;18.40;10.65;;;;;;;2.41;86.44;97885.81;5007500;28;20041;-62
2022/01/11 10:40:22;;;;;;;18.58;10.32;;;;;;;2.25;86.67;97873.47;5002689;28;20042;-64
2022/01/11 10:42:49;;;;;;;15.52;8.40;;;;;;;2.00;88.00;97882.59;5008220;28;20478;-64
2022/01/11 10:45:23;;;;;;;17.60;10.05;;;;;;;2.00;87.83;97891.53;5011312;28;20107;-64
2022/01/11 10:47:54;;;;;;;15.70;8.77;;;;;;;2.26;88.30;97888.63;5015928;28;20046;-65
2022/01/11 10:50:27;;;;;;;16.98;10.23;;;;;;;2.25;88.44;97890.53;5001739;28;20124;-65
2022/01/11 10:52:53;;;;;;;16.48;9.30;;;;;;;2.54;88.17;97891.63;5008665;28;20045;-63
2022/01/11 10:55:23;;;;;;;21.50;10.18;;;;;;;2.39;86.31;97879.03;4998418;28;20045;-64
2022/01/11 10:57:59;;;;;;;;;;;;;;;2.75;87.08;97894.94;5006662;28;20050;-63
2022/01/11 11:00:39;;;;;;;18.73;8.68;;;;;;;2.89;86.48;97895.88;4995423;28;19917;-63
2022/01/11 11:03:12;;;;;;;16.83;8.25;;;;;;;3.35;85.25;97902.66;4984192;28;20039;-64
2022/01/11 11:05:44;;;;;;;16.98;8.45;;;;;;;3.02;84.59;97899.78;4980059;28;20038;-64
2022/01/11 11:08:24;;;;;;;16.45;8.77;;;;;;;2.99;83.96;97890.34;4989772;28;20050;-65
2022/01/11 11:10:57;;;;;;;;;;;;;;;3.02;84.84;97892.47;4999805;28;20045;-65
2022/01/11 11:13:40;;;;;;;16.27;9.10;;;;;;;2.49;85.57;97884.38;4988971;28;20149;-64
2022/01/11 11:16:12;;;;;;;15.98;9.02;;;;;;;2.38;85.46;97901.78;4976066;28;20523;-66
2022/01/11 11:18:41;;;;;;;15.27;9.38;;;;;;;2.66;83.31;97895.53;4981672;28;20054;-62